createdAt,value
2022-08-17T00:01:32.750Z,92307.75
2022-08-17T00:04:21.044Z,92304.16
2022-08-17T00:06:49.295Z,92298.69
2022-08-17T00:09:18.711Z,92293.53
2022-08-17T00:12:40.868Z,92296.81
2022-08-17T00:14:36.329Z,92301.38
2022-08-17T00:17:06.421Z,92301.84
2022-08-17T00:19:33.098Z,92300.75
2022-08-17T00:22:34.345Z,92294.19
2022-08-17T00:24:50.147Z,92293.25
2022-08-17T00:27:17.283Z,92293.53
2022-08-17T00:29:45.729Z,92292.94
2022-08-17T00:33:22.701Z,92299.03
2022-08-17T00:35:00.013Z,92285.09
2022-08-17T00:37:26.524Z,92287.75
2022-08-17T00:39:53.115Z,92287.31
2022-08-17T00:42:19.886Z,92295.59
2022-08-17T00:44:46.786Z,92294.63
2022-08-17T00:47:13.385Z,92290.28
2022-08-17T00:49:40.043Z,92288.69
2022-08-17T00:52:15.633Z,92286.03
2022-08-17T00:54:44.962Z,92284.19
2022-08-17T00:57:20.114Z,92297.16
2022-08-17T01:00:03.336Z,92303.69
2022-08-17T01:02:42.345Z,92301.38
2022-08-17T01:05:19.652Z,92304.31
2022-08-17T01:07:49.342Z,92298.38
2022-08-17T01:10:59.823Z,92299.19
2022-08-17T01:13:05.378Z,92297.63
2022-08-17T01:15:36.404Z,92303.53
2022-08-17T01:18:05.482Z,92304.94
2022-08-17T01:20:41.903Z,92291.31
2022-08-17T01:23:20.627Z,92296.50
2022-08-17T01:25:52.929Z,92293.97
2022-08-17T01:28:52.424Z,92294.13
2022-08-17T01:31:08.769Z,92287.56
2022-08-17T01:33:35.669Z,92293.69
2022-08-17T01:36:03.606Z,92314.75
2022-08-17T01:38:31.858Z,92340.75
2022-08-17T01:41:03.117Z,92342.44
2022-08-17T01:43:43.468Z,92336.34
2022-08-17T01:46:14.584Z,92326.94
2022-08-17T01:48:42.976Z,92331.31
2022-08-17T01:51:09.725Z,92333.94
2022-08-17T01:53:41.279Z,92327.31
2022-08-17T01:56:14.764Z,92322.00
2022-08-17T01:58:42.911Z,92322.78
2022-08-17T02:01:11.104Z,92333.72
2022-08-17T02:03:38.443Z,92338.91
2022-08-17T02:06:12.012Z,92336.41
2022-08-17T02:09:01.831Z,92336.09
2022-08-17T02:11:29.890Z,92338.28
2022-08-17T02:14:02.887Z,92336.41
2022-08-17T02:16:37.470Z,92339.22
2022-08-17T02:19:07.089Z,92337.81
2022-08-17T02:21:34.028Z,92334.81
2022-08-17T02:24:00.695Z,92334.81
2022-08-17T02:26:27.367Z,92343.13
2022-08-17T02:28:53.981Z,92346.09
2022-08-17T02:31:21.256Z,92344.69
2022-08-17T02:33:47.783Z,92348.91
2022-08-17T02:36:27.572Z,92350.59
2022-08-17T02:38:54.170Z,92348.59
2022-08-17T02:41:20.735Z,92353.56
2022-08-17T02:43:47.257Z,92349.03
2022-08-17T02:46:13.829Z,92355.56
2022-08-17T02:48:40.398Z,92352.22
2022-08-17T02:51:07.011Z,92355.66
2022-08-17T02:53:35.634Z,92355.72
2022-08-17T03:00:21.247Z,92361.56
2022-08-17T03:02:48.475Z,92356.50
2022-08-17T03:05:20.068Z,92360.34
2022-08-17T03:07:46.658Z,92367.06
2022-08-17T03:10:14.530Z,92363.56
2022-08-17T03:12:42.313Z,92367.59
2022-08-17T03:15:18.219Z,92362.06
2022-08-17T03:17:45.067Z,92355.91
2022-08-17T03:20:13.188Z,92359.00
2022-08-17T03:22:43.317Z,92351.91
2022-08-17T03:25:19.491Z,92359.72
2022-08-17T03:27:49.421Z,92364.84
2022-08-17T03:30:18.555Z,92379.38
2022-08-17T03:32:49.632Z,92373.88
2022-08-17T03:35:18.987Z,92372.88
2022-08-17T03:37:45.681Z,92368.94
2022-08-17T03:40:12.613Z,92364.81
2022-08-17T03:42:41.050Z,92358.72
2022-08-17T03:45:15.366Z,92351.84
2022-08-17T03:48:14.627Z,92345.84
2022-08-17T03:50:59.618Z,92355.84
2022-08-17T03:53:54.177Z,92354.06
2022-08-17T03:56:40.046Z,92356.88
2022-08-17T03:59:06.594Z,92352.28
2022-08-17T04:01:50.785Z,92352.28
2022-08-17T04:04:20.058Z,92355.44
2022-08-17T04:06:54.338Z,92362.97
2022-08-17T04:09:20.907Z,92367.31
2022-08-17T04:11:47.782Z,92356.78
2022-08-17T04:14:14.301Z,92356.34
2022-08-17T04:16:41.187Z,92352.88
2022-08-17T04:19:07.931Z,92352.44
2022-08-17T04:21:34.656Z,92343.84
2022-08-17T04:24:01.856Z,92348.41
2022-08-17T04:26:54.135Z,92346.50
2022-08-17T04:29:16.728Z,92354.50
2022-08-17T04:31:43.911Z,92342.28
2022-08-17T04:34:10.471Z,92347.75
2022-08-17T04:36:37.121Z,92348.53
2022-08-17T04:39:03.846Z,92343.19
2022-08-17T04:41:49.018Z,92343.66
2022-08-17T04:44:27.207Z,92342.66
2022-08-17T04:47:02.927Z,92357.22
2022-08-17T04:49:29.526Z,92362.56
2022-08-17T04:51:59.088Z,92355.34
2022-08-17T04:54:29.218Z,92349.38
2022-08-17T04:56:55.740Z,92353.44
2022-08-17T04:59:22.604Z,92350.59
2022-08-17T05:01:51.281Z,92345.06
2022-08-17T05:04:34.753Z,92343.69
2022-08-17T05:07:02.396Z,92351.25
2022-08-17T05:09:29.097Z,92359.03
2022-08-17T05:11:56.270Z,92368.72
2022-08-17T05:14:33.137Z,92371.25
2022-08-17T05:17:00.525Z,92371.91
2022-08-17T05:19:28.617Z,92374.59
2022-08-17T05:21:55.173Z,92374.28
2022-08-17T05:24:39.043Z,92379.16
2022-08-17T05:27:08.256Z,92402.19
2022-08-17T05:29:35.046Z,92416.03
2022-08-17T05:32:37.896Z,92408.13
2022-08-17T05:34:59.986Z,92412.88
2022-08-17T05:37:26.505Z,92396.16
2022-08-17T05:39:53.946Z,92392.66
2022-08-17T05:42:20.996Z,92399.09
2022-08-17T05:44:47.548Z,92396.03
2022-08-17T05:47:14.159Z,92389.69
2022-08-17T05:49:40.774Z,92402.53
2022-08-17T05:52:26.392Z,92403.75
2022-08-17T05:55:12.076Z,92389.47
2022-08-17T05:57:53.323Z,92398.53
2022-08-17T06:00:20.917Z,92402.41
2022-08-17T06:03:17.074Z,92402.88
2022-08-17T06:06:01.919Z,92402.19
2022-08-17T06:08:56.661Z,92394.50
2022-08-17T06:11:37.291Z,92393.84
2022-08-17T06:14:45.198Z,92392.81
2022-08-17T06:17:17.988Z,92398.63
2022-08-17T06:19:59.775Z,92400.00
2022-08-17T06:22:32.949Z,92402.31
2022-08-17T06:25:04.611Z,92406.34
2022-08-17T06:27:47.251Z,92405.84
2022-08-17T06:30:22.154Z,92401.63
2022-08-17T06:32:51.048Z,92413.78
2022-08-17T06:35:39.875Z,92416.25
2022-08-17T06:38:37.157Z,92423.41
2022-08-17T06:41:15.518Z,92402.41
2022-08-17T06:44:10.004Z,92402.66
2022-08-17T06:46:36.472Z,92415.41
2022-08-17T06:49:15.223Z,92412.53
2022-08-17T06:51:48.692Z,92410.19
2022-08-17T06:54:38.814Z,92405.66
2022-08-17T06:57:17.955Z,92407.84
2022-08-17T06:59:59.198Z,92406.56
2022-08-17T07:02:52.536Z,92396.97
2022-08-17T07:05:41.090Z,92398.13
2022-08-17T07:08:18.653Z,92395.72
2022-08-17T07:10:52.990Z,92395.72
2022-08-17T07:13:25.725Z,92391.44
2022-08-17T07:15:59.093Z,92391.00
2022-08-17T07:18:33.032Z,92393.69
2022-08-17T07:21:17.549Z,92402.91
2022-08-17T07:24:26.349Z,92403.94
2022-08-17T07:27:15.504Z,92406.53
2022-08-17T07:29:46.917Z,92408.84
2022-08-17T07:32:18.508Z,92409.00
2022-08-17T07:35:37.554Z,92406.94
2022-08-17T07:38:25.205Z,92412.38
2022-08-17T07:41:02.641Z,92401.38
2022-08-17T07:43:41.651Z,92400.88
2022-08-17T07:46:29.639Z,92404.22
2022-08-17T07:49:16.011Z,92407.94
2022-08-17T07:51:42.421Z,92411.25
2022-08-17T07:54:15.017Z,92417.84
2022-08-17T07:57:14.083Z,92410.72
2022-08-17T08:00:05.774Z,92412.03
2022-08-17T08:02:45.404Z,92406.41
2022-08-17T08:05:48.781Z,92412.41
2022-08-17T08:08:30.199Z,92392.28
2022-08-17T08:11:11.903Z,92390.25
2022-08-17T08:13:43.544Z,92392.47
2022-08-17T08:16:25.062Z,92401.81
2022-08-17T08:18:57.183Z,92402.66
2022-08-17T08:21:33.458Z,92402.56
2022-08-17T08:24:36.469Z,92406.69
2022-08-17T08:27:29.163Z,92407.22
2022-08-17T08:30:02.889Z,92407.22
2022-08-17T08:32:34.919Z,92407.22
2022-08-17T08:35:22.629Z,92410.09
2022-08-17T08:38:07.533Z,92406.53
2022-08-17T08:40:58.542Z,92409.06
2022-08-17T08:43:37.796Z,92423.31
2022-08-17T08:46:22.261Z,92421.53
2022-08-17T08:49:14.377Z,92432.53
2022-08-17T08:51:58.166Z,92431.16
2022-08-17T08:54:46.372Z,92432.09
2022-08-17T08:57:29.436Z,92436.44
2022-08-17T09:00:21.661Z,92445.75
2022-08-17T09:03:13.164Z,92444.38
2022-08-17T09:06:03.969Z,92455.22
2022-08-17T09:08:42.639Z,92464.75
2022-08-17T09:12:01.112Z,92470.25
2022-08-17T09:14:56.714Z,92469.50
2022-08-17T09:17:43.181Z,92459.53
2022-08-17T09:20:27.988Z,92469.75
2022-08-17T09:23:08.023Z,92476.06
2022-08-17T09:25:48.397Z,92481.16
2022-08-17T09:28:24.128Z,92484.34
2022-08-17T09:30:51.759Z,92480.69
2022-08-17T09:33:27.667Z,92480.63
2022-08-17T09:35:59.972Z,92488.50
2022-08-17T09:38:40.498Z,92491.34
2022-08-17T09:41:23.804Z,92492.66
2022-08-17T09:44:02.160Z,92501.56
2022-08-17T09:46:34.744Z,92502.59
2022-08-17T09:49:25.154Z,92503.38
2022-08-17T09:51:58.292Z,92499.81
2022-08-17T09:54:39.522Z,92503.53
2022-08-17T09:57:32.167Z,92507.50
2022-08-17T10:00:18.679Z,92501.72
2022-08-17T10:03:04.468Z,92505.69
2022-08-17T10:05:45.367Z,92499.81
2022-08-17T10:08:27.775Z,92514.19
2022-08-17T10:11:52.328Z,92523.66
2022-08-17T10:14:44.197Z,92533.28
2022-08-17T10:17:20.422Z,92540.31
2022-08-17T10:19:53.753Z,92552.41
2022-08-17T10:23:02.190Z,92580.84
2022-08-17T10:25:55.229Z,92586.16
2022-08-17T10:28:30.307Z,92600.56
2022-08-17T10:31:32.998Z,92602.34
2022-08-17T10:34:26.677Z,92605.00
2022-08-17T10:37:04.952Z,92605.66
2022-08-17T10:39:34.331Z,92613.56
2022-08-17T10:42:37.688Z,92615.38
2022-08-17T10:45:15.976Z,92602.44
2022-08-17T10:48:06.829Z,92568.25
2022-08-17T10:50:49.646Z,92573.13
2022-08-17T10:53:31.308Z,92570.72
2022-08-17T10:56:25.322Z,92552.16
2022-08-17T10:59:01.369Z,92542.72
2022-08-17T11:01:39.949Z,92560.72
2022-08-17T11:04:18.839Z,92563.19
2022-08-17T11:07:05.348Z,92541.41
2022-08-17T11:09:44.141Z,92551.06
2022-08-17T11:12:37.651Z,92555.69
2022-08-17T11:15:16.444Z,92546.56
2022-08-17T11:17:53.919Z,92544.34
2022-08-17T11:20:59.643Z,92540.38
2022-08-17T11:24:01.523Z,92543.84
2022-08-17T11:26:33.505Z,92540.00
2022-08-17T11:29:09.569Z,92540.06
2022-08-17T11:31:41.469Z,92536.81
2022-08-17T11:34:26.374Z,92527.84
2022-08-17T11:37:20.057Z,92521.81
2022-08-17T11:40:05.772Z,92509.47
2022-08-17T11:42:53.859Z,92505.16
2022-08-17T11:45:43.312Z,92518.75
2022-08-17T11:48:49.874Z,92515.84
2022-08-17T11:51:34.010Z,92510.06
2022-08-17T11:54:34.740Z,92512.16
2022-08-17T11:57:42.226Z,92497.91
2022-08-17T12:00:49.816Z,92503.97
2022-08-17T12:03:34.634Z,92499.00
2022-08-17T12:06:06.922Z,92499.13
2022-08-17T12:08:41.756Z,92495.28
2022-08-17T12:11:56.277Z,92501.50
2022-08-17T12:14:08.503Z,92499.50
2022-08-17T12:16:35.173Z,92503.44
2022-08-17T12:19:03.880Z,92487.91
2022-08-17T12:21:45.089Z,92490.03
2022-08-17T12:24:11.535Z,92482.63
2022-08-17T12:26:40.493Z,92478.38
2022-08-17T12:29:18.369Z,92476.38
2022-08-17T12:32:04.780Z,92484.66
2022-08-17T12:34:38.463Z,92490.09
2022-08-17T12:37:13.159Z,92480.56
2022-08-17T12:39:48.695Z,92479.25
2022-08-17T12:42:24.245Z,92474.53
2022-08-17T12:44:50.886Z,92479.78
2022-08-17T12:47:22.379Z,92488.00
2022-08-17T12:49:52.237Z,92483.22
2022-08-17T12:52:26.759Z,92482.69
2022-08-17T12:54:57.416Z,92484.16
2022-08-17T12:57:29.228Z,92489.06
2022-08-17T13:00:01.285Z,92481.00
2022-08-17T13:02:32.457Z,92477.75
2022-08-17T13:05:01.315Z,92463.50
2022-08-17T13:07:32.135Z,92464.56
2022-08-17T13:09:58.822Z,92465.78
2022-08-17T13:12:30.878Z,92456.34
2022-08-17T13:14:58.433Z,92461.50
2022-08-17T13:17:27.684Z,92462.72
2022-08-17T13:19:54.413Z,92468.13
2022-08-17T13:22:24.270Z,92473.50
2022-08-17T13:25:03.541Z,92471.13
2022-08-17T13:27:30.427Z,92471.56
2022-08-17T13:30:00.769Z,92453.44
2022-08-17T13:32:30.992Z,92449.47
2022-08-17T13:35:14.863Z,92454.06
2022-08-17T13:37:59.492Z,92445.97
2022-08-17T13:40:30.507Z,92446.34
2022-08-17T13:42:57.824Z,92457.94
2022-08-17T13:45:36.550Z,92453.19
2022-08-17T13:48:15.958Z,92440.75
2022-08-17T13:50:57.474Z,92424.09
2022-08-17T13:53:31.463Z,92435.16
2022-08-17T13:56:37.913Z,92432.16
2022-08-17T13:59:52.480Z,92405.06
2022-08-17T14:02:20.112Z,92402.75
2022-08-17T14:04:48.145Z,92404.22
2022-08-17T14:07:15.997Z,92410.88
2022-08-17T14:09:53.216Z,92407.78
2022-08-17T14:12:25.201Z,92404.75
2022-08-17T14:14:53.749Z,92406.66
2022-08-17T14:17:20.901Z,92411.69
2022-08-17T14:19:48.116Z,92403.56
2022-08-17T14:22:34.075Z,92410.88
2022-08-17T14:25:04.047Z,92409.75
2022-08-17T14:27:33.975Z,92415.88
2022-08-17T14:30:10.352Z,92426.34
2022-08-17T14:32:38.277Z,92421.75
2022-08-17T14:35:06.311Z,92424.06
2022-08-17T14:37:34.371Z,92414.72
2022-08-17T14:40:05.276Z,92424.22
2022-08-17T14:42:34.102Z,92428.88
2022-08-17T14:45:06.150Z,92417.59
2022-08-17T14:47:52.734Z,92416.84
2022-08-17T14:50:21.111Z,92398.31
2022-08-17T14:52:49.139Z,92393.75
2022-08-17T14:55:20.725Z,92395.31
2022-08-17T14:57:47.296Z,92404.66
2022-08-17T15:00:16.555Z,92404.19
2022-08-17T15:02:53.844Z,92400.31
2022-08-17T15:05:23.038Z,92393.72
2022-08-17T15:07:49.801Z,92389.00
2022-08-17T15:10:17.594Z,92391.56
2022-08-17T15:12:44.184Z,92389.56
2022-08-17T15:15:14.690Z,92390.25
2022-08-17T15:17:46.025Z,92387.53
2022-08-17T15:20:24.872Z,92407.03
2022-08-17T15:22:55.408Z,92417.28
2022-08-17T15:25:23.258Z,92409.41
2022-08-17T15:27:50.260Z,92405.03
2022-08-17T15:30:17.647Z,92401.53
2022-08-17T15:32:51.017Z,92396.44
2022-08-17T15:35:27.235Z,92401.34
2022-08-17T15:38:04.606Z,92388.28
2022-08-17T15:40:37.176Z,92388.09
2022-08-17T15:43:08.409Z,92391.41
2022-08-17T15:45:35.334Z,92393.56
2022-08-17T15:48:02.287Z,92381.94
2022-08-17T15:50:28.899Z,92364.94
2022-08-17T15:53:00.550Z,92365.69
2022-08-17T15:55:29.457Z,92381.25
2022-08-17T15:57:55.993Z,92386.44
2022-08-17T16:00:23.978Z,92385.25
2022-08-17T16:03:46.051Z,92383.59
2022-08-17T16:05:37.789Z,92381.25
2022-08-17T16:08:07.693Z,92383.06
2022-08-17T16:10:35.647Z,92401.72
2022-08-17T16:13:03.969Z,92405.13
2022-08-17T16:15:33.673Z,92403.13
2022-08-17T16:18:00.274Z,92390.81
2022-08-17T16:20:27.106Z,92396.84
2022-08-17T16:22:54.505Z,92423.53
2022-08-17T16:25:52.486Z,92425.28
2022-08-17T16:28:13.541Z,92409.47
2022-08-17T16:30:41.201Z,92405.94
2022-08-17T16:33:11.323Z,92426.25
2022-08-17T16:35:38.210Z,92419.69
2022-08-17T16:38:04.900Z,92396.22
2022-08-17T16:40:35.766Z,92402.72
2022-08-17T16:43:03.780Z,92414.75
2022-08-17T16:45:36.649Z,92442.31
2022-08-17T16:48:03.855Z,92439.53
2022-08-17T16:50:31.862Z,92446.44
2022-08-17T16:53:07.069Z,92468.34
2022-08-17T16:55:35.661Z,92473.06
2022-08-17T16:58:06.491Z,92479.66
2022-08-17T17:00:33.772Z,92491.53
2022-08-17T17:03:19.107Z,92490.66
2022-08-17T17:05:51.444Z,92488.75
2022-08-17T17:08:34.790Z,92482.97
2022-08-17T17:11:13.042Z,92457.38
2022-08-17T17:13:46.821Z,92460.00
2022-08-17T17:16:21.770Z,92445.25
2022-08-17T17:19:05.130Z,92435.66
2022-08-17T17:21:43.635Z,92426.50
2022-08-17T17:24:17.015Z,92405.44
2022-08-17T17:26:55.530Z,92398.88
2022-08-17T17:29:48.452Z,92414.06
2022-08-17T17:32:27.913Z,92413.53
2022-08-17T17:35:05.094Z,92416.63
2022-08-17T17:37:35.150Z,92412.31
2022-08-17T17:40:24.258Z,92420.69
2022-08-17T17:43:14.261Z,92411.13
2022-08-17T17:46:21.899Z,92415.50
2022-08-17T17:48:48.373Z,92417.53
2022-08-17T17:52:03.658Z,92426.50
2022-08-17T17:54:35.345Z,92434.44
2022-08-17T17:57:18.205Z,92428.69
2022-08-17T17:59:58.981Z,92428.25
2022-08-17T18:02:51.223Z,92432.91
2022-08-17T18:05:37.291Z,92435.47
2022-08-17T18:08:32.144Z,92420.44
2022-08-17T18:11:12.460Z,92414.47
2022-08-17T18:14:03.972Z,92417.25
2022-08-17T18:16:32.835Z,92418.50
2022-08-17T18:19:00.193Z,92405.81
2022-08-17T18:21:37.941Z,92396.03
2022-08-17T18:24:07.592Z,92396.38
2022-08-17T18:26:53.116Z,92382.03
2022-08-17T18:29:31.177Z,92371.56
2022-08-17T18:32:25.595Z,92375.59
2022-08-17T18:34:57.471Z,92369.22
2022-08-17T18:37:48.129Z,92372.44
2022-08-17T18:40:17.678Z,92382.47
2022-08-17T18:42:50.355Z,92392.59
2022-08-17T18:45:35.868Z,92393.91
2022-08-17T18:48:02.588Z,92422.16
2022-08-17T18:50:39.570Z,92426.03
2022-08-17T18:53:34.531Z,92440.47
2022-08-17T18:56:30.697Z,92449.53
2022-08-17T18:59:06.244Z,92448.78
2022-08-17T19:01:59.344Z,92452.00
2022-08-17T19:04:37.212Z,92466.88
2022-08-17T19:07:12.478Z,92470.75
2022-08-17T19:09:45.690Z,92490.34
2022-08-17T19:12:27.483Z,92487.69
2022-08-17T19:14:56.917Z,92492.56
2022-08-17T19:17:29.374Z,92490.63
2022-08-17T19:19:59.701Z,92498.38
2022-08-17T19:22:34.454Z,92492.47
2022-08-17T19:25:12.374Z,92489.72
2022-08-17T19:27:50.607Z,92473.09
2022-08-17T19:30:24.256Z,92472.44
2022-08-17T19:32:50.980Z,92485.88
2022-08-17T19:35:20.226Z,92490.84
2022-08-17T19:38:12.823Z,92507.25
2022-08-17T19:40:53.756Z,92521.97
2022-08-17T19:43:53.250Z,92500.84
2022-08-17T19:46:26.050Z,92491.59
2022-08-17T19:49:33.403Z,92491.31
2022-08-17T19:52:10.984Z,92475.97
2022-08-17T19:54:45.388Z,92475.34
2022-08-17T19:57:21.712Z,92477.06
2022-08-17T20:00:01.844Z,92473.63
2022-08-17T20:02:47.061Z,92486.94
2022-08-17T20:05:19.713Z,92490.06
2022-08-17T20:07:58.572Z,92492.44
2022-08-17T20:10:40.342Z,92493.66
2022-08-17T20:13:15.249Z,92488.06
2022-08-17T20:15:44.764Z,92478.97
2022-08-17T20:18:24.012Z,92490.72
2022-08-17T20:20:58.241Z,92497.41
2022-08-17T20:23:45.856Z,92497.28
2022-08-17T20:26:14.881Z,92499.94
2022-08-17T20:29:14.279Z,92501.81
2022-08-17T20:32:04.111Z,92502.91
2022-08-17T20:34:37.499Z,92500.22
2022-08-17T20:37:27.721Z,92481.34
2022-08-17T20:40:00.443Z,92483.38
2022-08-17T20:42:27.862Z,92481.34
2022-08-17T20:44:58.020Z,92490.06
2022-08-17T20:47:31.016Z,92484.47
2022-08-17T20:50:27.094Z,92478.22
2022-08-17T20:52:57.219Z,92482.56
2022-08-17T20:55:35.702Z,92491.47
2022-08-17T20:58:24.641Z,92496.28
2022-08-17T21:00:57.206Z,92500.53
2022-08-17T21:03:23.827Z,92500.66
2022-08-17T21:06:00.735Z,92515.66
2022-08-17T21:08:46.290Z,92516.28
2022-08-17T21:11:59.952Z,92538.44
2022-08-17T21:14:38.801Z,92544.69
2022-08-17T21:17:14.834Z,92550.47
2022-08-17T21:20:08.077Z,92560.25
2022-08-17T21:22:43.226Z,92578.09
2022-08-17T21:25:48.313Z,92580.00
2022-08-17T21:28:33.755Z,92589.53
2022-08-17T21:31:08.517Z,92593.31
2022-08-17T21:33:38.944Z,92606.78
2022-08-17T21:36:15.914Z,92605.44
2022-08-17T21:38:57.772Z,92611.34
2022-08-17T21:41:33.785Z,92627.44
2022-08-17T21:44:27.808Z,92631.09
2022-08-17T21:47:22.012Z,92646.59
2022-08-17T21:49:49.249Z,92658.72
2022-08-17T21:52:18.039Z,92667.00
2022-08-17T21:54:55.038Z,92680.75
2022-08-17T21:57:29.641Z,92682.16
2022-08-17T22:00:00.166Z,92686.53
2022-08-17T22:02:37.875Z,92706.47
2022-08-17T22:05:11.608Z,92704.97
2022-08-17T22:07:50.860Z,92690.06
2022-08-17T22:10:34.808Z,92692.13
2022-08-17T22:13:19.874Z,92701.16
2022-08-17T22:16:15.308Z,92692.53
2022-08-17T22:18:57.598Z,92681.75
2022-08-17T22:21:25.106Z,92677.78
2022-08-17T22:24:05.024Z,92659.75
2022-08-17T22:27:01.300Z,92649.56
2022-08-17T22:29:47.754Z,92660.16
2022-08-17T22:32:41.984Z,92663.63
2022-08-17T22:35:34.617Z,92675.81
2022-08-17T22:38:19.162Z,92666.75
2022-08-17T22:40:52.751Z,92668.59
2022-08-17T22:43:26.248Z,92655.34
2022-08-17T22:45:55.756Z,92658.00
2022-08-17T22:48:27.413Z,92642.69
2022-08-17T22:51:13.642Z,92635.97
2022-08-17T22:54:19.270Z,92628.31
2022-08-17T22:57:17.894Z,92623.63
2022-08-17T22:59:50.232Z,92606.13
2022-08-17T23:02:34.695Z,92600.31
2022-08-17T23:05:10.738Z,92599.34
2022-08-17T23:07:37.430Z,92595.91
2022-08-17T23:10:06.385Z,92604.34
2022-08-17T23:12:38.893Z,92601.91
2022-08-17T23:15:11.661Z,92595.81
2022-08-17T23:17:38.738Z,92592.84
2022-08-17T23:20:08.508Z,92593.59
2022-08-17T23:22:37.991Z,92598.09
2022-08-17T23:25:28.085Z,92593.13
2022-08-17T23:27:55.868Z,92587.63
2022-08-17T23:30:25.362Z,92585.78
2022-08-17T23:32:54.281Z,92586.06
2022-08-17T23:35:39.996Z,92580.91
2022-08-17T23:38:08.443Z,92580.41
2022-08-17T23:40:35.023Z,92583.56
2022-08-17T23:43:05.881Z,92582.47
2022-08-17T23:45:38.739Z,92578.47
2022-08-17T23:48:06.609Z,92571.81
2022-08-17T23:50:33.939Z,92565.53
2022-08-17T23:53:02.984Z,92567.72
2022-08-17T23:55:34.530Z,92569.69
2022-08-17T23:58:02.655Z,92574.09
